Terminal Aerodrome Forecast
Issued by NWS Medford, OR

Home | Current Version | Previous Version | Text Only | Print | Product List | Glossary On
Versions: 1 2 3 4 5 6 7 8 9 10 11 12 13 14 15 16 17 18 19 20 21 22 23
595
FTUS46 KMFR 221746
TAFMFR
TAF
KMFR 221746Z 2218/2318 VRB03KT P6SM VCSH SCT030 OVC050
     FM221900 VRB03KT P6SM VCSH SCT020 BKN035 OVC050
     FM230000 VRB03KT P6SM SCT025 OVC050
     FM230500 VRB02KT 6SM BR BKN040
     FM231300 VRB02KT 3SM BR BKN003
     FM231700 33003KT P6SM FEW005 SCT250=

USA.gov is the U.S. government's official web portal to all federal, state and local government web resources and services.